Time;durP1;ratioP1;P1;durP2;ratioP2;P2;SDS_P1;SDS_P2;PMS_P1;PMS_P2;Temp;Humidity;BMP_temperature;BMP_pressure;BME280_temperature;BME280_humidity;BME280_pressure;Samples;Min_cycle;Max_cycle;Signal;HPM_P1;HPM_P2
2021/07/09 00:01:38;;;;;;;5.18;3.45;;;20.00;99.90;;;;;;5090796;28;20489;-75
2021/07/09 00:04:04;;;;;;;5.40;3.42;;;20.00;99.90;;;;;;5090653;28;20059;-73
2021/07/09 00:06:29;;;;;;;6.25;3.97;;;20.00;99.90;;;;;;5091158;28;20020;-75
2021/07/09 00:08:55;;;;;;;7.53;4.00;;;19.90;99.90;;;;;;5090872;28;20461;-75
2021/07/09 00:11:21;;;;;;;6.10;3.65;;;20.00;99.90;;;;;;5090668;28;20032;-73
2021/07/09 00:13:47;;;;;;;7.85;3.85;;;20.00;99.90;;;;;;5090766;28;20049;-73
2021/07/09 00:16:14;;;;;;;8.70;4.57;;;20.10;99.90;;;;;;5090679;28;20040;-74
2021/07/09 00:18:40;;;;;;;4.85;3.40;;;20.10;99.90;;;;;;5090659;28;20028;-74
2021/07/09 00:21:06;;;;;;;4.88;3.67;;;20.10;99.90;;;;;;5091115;28;20156;-73
2021/07/09 00:23:32;;;;;;;6.07;4.30;;;20.00;99.90;;;;;;5091001;28;20453;-74
2021/07/09 00:25:57;;;;;;;6.95;3.83;;;20.00;99.90;;;;;;5090894;28;20035;-74
2021/07/09 00:28:23;;;;;;;7.00;3.75;;;20.00;99.90;;;;;;5089399;28;20051;-75
2021/07/09 00:30:48;;;;;;;7.18;3.75;;;20.00;99.90;;;;;;5090750;28;20454;-74
2021/07/09 00:33:14;;;;;;;5.82;3.67;;;20.00;99.90;;;;;;5091922;28;20028;-74
2021/07/09 00:35:40;;;;;;;5.20;3.40;;;20.00;99.90;;;;;;5094628;28;20032;-73
2021/07/09 00:38:05;;;;;;;5.78;3.58;;;20.00;99.90;;;;;;5094560;28;20127;-74
2021/07/09 00:40:31;;;;;;;9.10;3.78;;;19.90;99.90;;;;;;5093484;28;20032;-73
2021/07/09 00:42:56;;;;;;;7.60;3.70;;;19.90;99.90;;;;;;5076795;28;20109;-73
2021/07/09 00:45:22;;;;;;;8.40;4.38;;;19.90;99.90;;;;;;5093809;28;20024;-74
2021/07/09 00:47:49;;;;;;;5.97;3.92;;;19.90;99.90;;;;;;5094489;28;20094;-75
2021/07/09 00:50:15;;;;;;;6.53;3.97;;;20.00;99.90;;;;;;5094603;28;20043;-75
2021/07/09 00:52:42;;;;;;;6.85;4.03;;;19.90;99.90;;;;;;5094425;28;20108;-74
2021/07/09 00:55:09;;;;;;;14.50;4.20;;;19.90;99.90;;;;;;5094495;28;20024;-74
2021/07/09 00:57:40;;;;;;;6.70;4.13;;;19.90;99.90;;;;;;5094479;28;20028;-76
2021/07/09 01:00:08;;;;;;;5.93;3.85;;;19.90;99.90;;;;;;5095147;28;20562;-74
2021/07/09 01:02:34;;;;;;;;;;;20.00;99.90;;;;;;5094806;28;20503;-74
2021/07/09 01:04:59;;;;;;;10.70;5.68;;;19.90;99.90;;;;;;5094077;28;19912;-74
2021/07/09 01:07:26;;;;;;;15.80;5.63;;;19.90;99.90;;;;;;5072807;28;20418;-76
2021/07/09 01:09:51;;;;;;;5.70;4.88;;;19.90;99.90;;;;;;5073374;28;20032;-75
2021/07/09 01:12:21;;;;;;;11.02;5.53;;;19.90;99.90;;;;;;5073413;28;20020;-75
2021/07/09 01:14:47;;;;;;;10.93;5.25;;;19.90;99.90;;;;;;5092505;28;20024;-74
2021/07/09 01:17:13;;;;;;;10.73;6.18;;;19.90;99.90;;;;;;5094036;28;20290;-75
2021/07/09 01:19:40;;;;;;;12.85;5.70;;;19.90;99.90;;;;;;5094026;28;20032;-73
2021/07/09 01:22:06;;;;;;;9.82;6.07;;;19.90;99.90;;;;;;5072599;28;20044;-74
2021/07/09 01:24:33;;;;;;;11.05;5.93;;;19.90;99.90;;;;;;5089538;28;20063;-75
2021/07/09 01:26:58;;;;;;;10.10;5.90;;;19.90;99.90;;;;;;5094083;28;20119;-74
2021/07/09 01:29:24;;;;;;;15.07;6.45;;;19.90;99.90;;;;;;5093601;28;20521;-75
2021/07/09 01:31:51;;;;;;;9.32;5.95;;;19.90;99.90;;;;;;5092786;28;20365;-75
2021/07/09 01:34:17;;;;;;;14.27;6.65;;;19.90;99.90;;;;;;5092830;28;20032;-76
2021/07/09 01:36:42;;;;;;;10.18;5.88;;;19.90;99.90;;;;;;5126002;27;20087;-75
2021/07/09 01:39:08;;;;;;;14.52;5.43;;;19.90;99.90;;;;;;5135225;27;20564;-75
2021/07/09 01:41:34;;;;;;;9.73;5.38;;;20.00;99.90;;;;;;5134322;27;20101;-75
2021/07/09 01:44:01;;;;;;;7.25;4.82;;;19.90;99.90;;;;;;5116420;27;20042;-75
2021/07/09 01:46:27;;;;;;;15.77;5.53;;;19.90;99.90;;;;;;5134599;27;20367;-75
2021/07/09 01:48:53;;;;;;;12.70;5.25;;;19.80;99.90;;;;;;5134367;27;20039;-75
2021/07/09 01:51:18;;;;;;;8.98;4.95;;;19.80;99.90;;;;;;5135079;27;20027;-74
2021/07/09 01:53:44;;;;;;;6.20;5.18;;;19.80;99.90;;;;;;5134247;27;20335;-75
2021/07/09 01:56:10;;;;;;;9.07;5.28;;;19.70;99.90;;;;;;5134059;27;20027;-75
2021/07/09 01:58:35;;;;;;;11.10;5.72;;;19.70;99.90;;;;;;5133949;27;20046;-75
2021/07/09 02:01:01;;;;;;;8.07;5.35;;;19.70;99.90;;;;;;5134187;27;20038;-73
2021/07/09 02:03:26;;;;;;;10.68;6.05;;;19.70;99.90;;;;;;5134355;27;20031;-73
2021/07/09 02:05:52;;;;;;;13.48;6.80;;;19.70;99.90;;;;;;5134212;27;20114;-75
2021/07/09 02:08:18;;;;;;;11.55;6.60;;;19.70;99.90;;;;;;5133894;27;20461;-74
2021/07/09 02:10:44;;;;;;;13.73;7.13;;;19.70;99.90;;;;;;5134041;27;20142;-74
2021/07/09 02:13:11;;;;;;;10.93;6.90;;;19.70;99.90;;;;;;5133876;27;20027;-75
2021/07/09 02:15:39;;;;;;;9.55;6.90;;;19.80;99.90;;;;;;5134005;27;20038;-75
2021/07/09 02:18:05;;;;;;;;;;;19.80;99.90;;;;;;5134484;27;20023;-75
2021/07/09 02:20:33;;;;;;;15.68;7.15;;;19.80;99.90;;;;;;5133783;27;19919;-75
2021/07/09 02:23:00;;;;;;;18.30;7.43;;;19.80;99.90;;;;;;5133505;27;20028;-75
2021/07/09 02:25:28;;;;;;;13.70;7.80;;;19.80;99.90;;;;;;5133839;27;20042;-75
2021/07/09 02:27:55;;;;;;;14.98;7.82;;;19.70;99.90;;;;;;5115441;27;20128;-75
2021/07/09 02:30:22;;;;;;;14.75;7.40;;;19.70;99.90;;;;;;5133844;27;20026;-74
2021/07/09 02:32:48;;;;;;;13.98;8.57;;;19.80;99.90;;;;;;5133811;27;20465;-75
2021/07/09 02:35:18;;;;;;;15.95;8.20;;;19.80;99.90;;;;;;5114953;27;20046;-74
2021/07/09 02:37:44;;;;;;;12.02;7.45;;;19.70;99.90;;;;;;5133258;27;20031;-76
2021/07/09 02:40:13;;;;;;;18.77;7.32;;;19.70;99.90;;;;;;5132924;27;20039;-77
2021/07/09 02:42:50;;;;;;;11.57;8.32;;;19.70;99.90;;;;;;5133307;27;20016;-75
2021/07/09 02:45:17;;;;;;;12.85;8.40;;;19.70;99.90;;;;;;5133732;27;20042;-74
2021/07/09 02:47:43;;;;;;;9.80;6.82;;;19.70;99.90;;;;;;5114845;27;20055;-75
2021/07/09 02:50:13;;;;;;;15.32;7.80;;;19.70;99.90;;;;;;5132882;27;20432;-76
2021/07/09 02:52:39;;;;;;;13.32;7.97;;;19.70;99.90;;;;;;5132943;27;20528;-76
2021/07/09 02:55:06;;;;;;;12.18;7.38;;;19.60;99.90;;;;;;5115236;27;20126;-76
2021/07/09 02:57:32;;;;;;;14.02;8.40;;;19.60;99.90;;;;;;5132342;27;20068;-76
2021/07/09 02:59:58;;;;;;;11.38;7.63;;;19.40;99.90;;;;;;5133284;27;20435;-74
2021/07/09 03:02:24;;;;;;;14.35;7.57;;;19.50;99.90;;;;;;5132864;27;20051;-75
2021/07/09 03:04:49;;;;;;;11.70;7.90;;;19.40;99.90;;;;;;5114713;27;20130;-74
2021/07/09 03:07:15;;;;;;;15.88;8.50;;;19.50;99.90;;;;;;5132684;27;22013;-76
2021/07/09 03:09:40;;;;;;;22.73;8.48;;;19.40;99.90;;;;;;5132662;27;20015;-76
2021/07/09 03:12:07;;;;;;;10.88;8.52;;;19.40;99.90;;;;;;5133122;27;20038;-76
2021/07/09 03:14:34;;;;;;;18.25;9.07;;;19.40;99.90;;;;;;5132576;27;20019;-75
2021/07/09 03:16:59;;;;;;;15.23;9.32;;;19.50;99.90;;;;;;5114537;27;20027;-75
2021/07/09 03:19:25;;;;;;;17.77;10.00;;;19.50;99.90;;;;;;5132436;27;20154;-76
2021/07/09 03:21:50;;;;;;;12.68;9.02;;;19.50;99.90;;;;;;5114525;27;20468;-76
2021/07/09 03:24:16;;;;;;;14.38;9.07;;;19.60;99.90;;;;;;5132945;27;20019;-76
2021/07/09 03:26:42;;;;;;;19.92;10.90;;;19.50;99.90;;;;;;5114181;27;20027;-75
2021/07/09 03:29:08;;;;;;;14.70;9.27;;;19.60;99.90;;;;;;5132160;27;20046;-75
2021/07/09 03:31:33;;;;;;;17.02;9.70;;;19.50;99.90;;;;;;5132067;27;20035;-74
2021/07/09 03:33:59;;;;;;;16.60;9.43;;;19.60;99.90;;;;;;5132171;27;20031;-75
2021/07/09 03:36:26;;;;;;;18.90;10.25;;;19.60;99.90;;;;;;5132532;27;20023;-75
2021/07/09 03:38:53;;;;;;;18.48;9.63;;;19.60;99.90;;;;;;5113629;27;20031;-76
2021/07/09 03:41:18;;;;;;;14.90;9.52;;;19.50;99.90;;;;;;5132404;27;20047;-75
2021/07/09 03:43:44;;;;;;;19.88;10.07;;;19.50;99.90;;;;;;5132295;27;20038;-75
2021/07/09 03:46:10;;;;;;;13.07;9.10;;;19.50;99.90;;;;;;5131898;27;20419;-75
2021/07/09 03:48:36;;;;;;;17.10;10.48;;;19.50;99.90;;;;;;5112929;27;20061;-75
2021/07/09 03:51:03;;;;;;;13.48;9.45;;;19.50;99.90;;;;;;5132756;27;20020;-75
2021/07/09 03:53:28;;;;;;;15.80;9.43;;;19.50;99.90;;;;;;5113959;27;20023;-73
2021/07/09 03:55:54;;;;;;;17.75;9.45;;;19.50;99.90;;;;;;5131731;27;20042;-74
2021/07/09 03:58:19;;;;;;;18.92;10.57;;;19.50;99.90;;;;;;5131841;27;20464;-74
2021/07/09 04:00:45;;;;;;;18.58;10.00;;;19.50;99.90;;;;;;5131996;27;20031;-74
2021/07/09 04:03:11;;;;;;;18.35;9.52;;;19.50;99.90;;;;;;5114081;27;20055;-74
2021/07/09 04:05:36;;;;;;;19.55;10.48;;;19.50;99.90;;;;;;5131993;27;20031;-73
2021/07/09 04:08:02;;;;;;;14.48;8.95;;;19.40;99.90;;;;;;5130971;27;20051;-75
2021/07/09 04:10:28;;;;;;;20.67;10.68;;;19.30;99.90;;;;;;5132273;27;20539;-74
2021/07/09 04:12:54;;;;;;;16.65;10.77;;;19.30;99.90;;;;;;5113818;28;20119;-74
2021/07/09 04:15:20;;;;;;;17.70;9.27;;;19.40;99.90;;;;;;5132046;28;20587;-75
2021/07/09 04:17:45;;;;;;;16.65;10.57;;;19.40;99.90;;;;;;5131978;28;20032;-75
2021/07/09 04:20:12;;;;;;;11.82;9.98;;;19.40;99.90;;;;;;5131779;28;20034;-75
2021/07/09 04:22:38;;;;;;;17.00;10.73;;;19.50;99.90;;;;;;5131960;28;20580;-75
2021/07/09 04:25:08;;;;;;;17.75;10.80;;;19.50;99.90;;;;;;5131484;28;20043;-76
2021/07/09 04:27:34;;;;;;;14.35;10.82;;;19.50;99.90;;;;;;5113342;28;20023;-75
2021/07/09 04:29:59;;;;;;;13.43;10.52;;;19.50;99.90;;;;;;5131943;28;20055;-75
2021/07/09 04:32:25;;;;;;;27.70;11.77;;;19.40;99.90;;;;;;5113216;28;20496;-76
2021/07/09 04:34:51;;;;;;;18.35;11.52;;;19.50;99.90;;;;;;5131523;28;20111;-76
2021/07/09 04:37:16;;;;;;;23.00;12.18;;;19.40;99.90;;;;;;5131301;28;20495;-75
2021/07/09 04:39:42;;;;;;;15.07;11.60;;;19.50;99.90;;;;;;5131234;28;20126;-75
2021/07/09 04:42:07;;;;;;;14.90;10.88;;;19.50;99.90;;;;;;5131653;28;20448;-75
2021/07/09 04:44:34;;;;;;;24.05;10.85;;;19.40;99.90;;;;;;5131081;28;20024;-75
2021/07/09 04:47:00;;;;;;;20.80;10.80;;;19.50;99.90;;;;;;5131135;28;20045;-76
2021/07/09 04:49:26;;;;;;;15.10;11.25;;;19.50;99.90;;;;;;5131585;28;20036;-76
2021/07/09 04:51:53;;;;;;;21.60;10.25;;;19.40;99.90;;;;;;5131110;28;20069;-75
2021/07/09 04:54:18;;;;;;;18.55;10.35;;;19.40;99.90;;;;;;5131898;28;20019;-76
2021/07/09 04:56:44;;;;;;;18.00;10.77;;;19.50;99.90;;;;;;5131483;28;20042;-75
2021/07/09 04:59:10;;;;;;;18.50;10.43;;;19.40;99.90;;;;;;5131485;28;20031;-73
2021/07/09 05:01:36;;;;;;;20.02;11.70;;;19.50;99.90;;;;;;5130990;28;20203;-75
2021/07/09 05:04:02;;;;;;;16.90;11.82;;;19.50;99.90;;;;;;5126532;28;20047;-74
2021/07/09 05:06:27;;;;;;;18.80;12.00;;;19.50;99.90;;;;;;5111193;28;20098;-75
2021/07/09 05:08:53;;;;;;;16.02;12.13;;;19.50;99.90;;;;;;5110587;28;20028;-76
2021/07/09 05:11:18;;;;;;;19.08;13.45;;;19.30;99.90;;;;;;5109700;28;20119;-76
2021/07/09 05:13:45;;;;;;;23.45;15.13;;;19.30;99.90;;;;;;5110549;28;20042;-76
2021/07/09 05:16:11;;;;;;;21.17;14.48;;;19.30;99.90;;;;;;5110334;28;20492;-76
2021/07/09 05:18:36;;;;;;;20.58;14.13;;;19.30;99.90;;;;;;5110212;28;20034;-76
2021/07/09 05:21:02;;;;;;;20.52;15.40;;;19.40;99.90;;;;;;5114360;28;20024;-76
2021/07/09 05:23:28;;;;;;;24.75;14.57;;;19.40;99.90;;;;;;5114179;28;20046;-75
2021/07/09 05:25:54;;;;;;;25.05;15.52;;;19.50;99.90;;;;;;5114096;28;20031;-75
2021/07/09 05:28:20;;;;;;;21.27;14.52;;;19.40;99.90;;;;;;5114071;28;20104;-75
2021/07/09 05:30:46;;;;;;;26.88;16.65;;;19.50;99.90;;;;;;5114084;28;20024;-74
2021/07/09 05:33:15;;;;;;;30.05;17.77;;;19.30;99.90;;;;;;5114228;28;20085;-76
2021/07/09 05:35:43;;;;;;;29.42;17.13;;;19.30;99.90;;;;;;5112946;28;20059;-77
2021/07/09 05:38:09;;;;;;;25.77;17.50;;;19.40;99.90;;;;;;5114016;28;20035;-76
2021/07/09 05:40:35;;;;;;;29.05;16.70;;;19.40;99.90;;;;;;5113347;28;20036;-74
2021/07/09 05:43:01;;;;;;;28.95;16.58;;;19.40;99.90;;;;;;5113605;28;20084;-75
2021/07/09 05:45:27;;;;;;;26.75;18.00;;;19.40;99.90;;;;;;5096014;28;20457;-75
2021/07/09 05:47:53;;;;;;;27.35;17.50;;;19.50;99.90;;;;;;5113958;28;20027;-74
2021/07/09 05:50:19;;;;;;;30.63;17.42;;;19.40;99.90;;;;;;5113409;28;20110;-74
2021/07/09 05:52:45;;;;;;;29.50;17.55;;;19.50;99.90;;;;;;5113413;28;20034;-74
2021/07/09 05:55:11;;;;;;;27.80;16.88;;;19.50;99.90;;;;;;5113043;28;20160;-74
2021/07/09 05:57:36;;;;;;;25.77;16.27;;;19.40;99.90;;;;;;5113162;28;20504;-75
2021/07/09 06:00:04;;;;;;;26.55;16.20;;;19.50;99.90;;;;;;5096041;28;20016;-74
2021/07/09 06:02:30;;;;;;;29.40;16.73;;;19.50;99.90;;;;;;5113324;28;20042;-77
2021/07/09 06:04:55;;;;;;;22.40;15.00;;;19.50;99.90;;;;;;5095234;28;20028;-76
2021/07/09 06:07:21;;;;;;;30.20;15.82;;;19.50;99.90;;;;;;5113177;28;20220;-75
2021/07/09 06:09:46;;;;;;;30.98;16.40;;;19.50;99.90;;;;;;5112959;28;20043;-73
2021/07/09 06:12:12;;;;;;;19.33;14.35;;;19.60;99.90;;;;;;5095398;28;20066;-77
2021/07/09 06:14:38;;;;;;;28.90;15.98;;;19.60;99.90;;;;;;5113194;28;20188;-76
2021/07/09 06:17:03;;;;;;;32.28;17.20;;;19.60;99.90;;;;;;5113282;28;20032;-78
2021/07/09 06:19:29;;;;;;;22.88;16.45;;;19.70;99.90;;;;;;5095687;28;20032;-76
2021/07/09 06:21:54;;;;;;;24.33;16.45;;;19.70;99.90;;;;;;5113177;28;20072;-77
2021/07/09 06:24:20;;;;;;;23.88;16.58;;;19.70;99.90;;;;;;5113734;28;20020;-76
2021/07/09 06:26:46;;;;;;;26.77;17.10;;;19.70;99.90;;;;;;5113219;28;20046;-78
2021/07/09 06:29:11;;;;;;;30.13;16.70;;;19.70;99.90;;;;;;5113791;28;20054;-76
2021/07/09 06:31:37;;;;;;;23.90;17.10;;;19.70;99.90;;;;;;5111972;28;20090;-77
2021/07/09 06:34:02;;;;;;;25.00;15.25;;;19.70;99.90;;;;;;5112829;28;20023;-77
2021/07/09 06:36:28;;;;;;;23.95;14.57;;;19.70;99.90;;;;;;5095289;28;20123;-77
2021/07/09 06:38:54;;;;;;;25.88;16.17;;;19.70;99.90;;;;;;5094606;28;20024;-79
2021/07/09 06:41:19;;;;;;;29.02;16.17;;;19.80;99.90;;;;;;5094746;28;20114;-78
2021/07/09 06:43:45;;;;;;;24.77;15.13;;;19.70;99.90;;;;;;5061911;28;20124;-77
2021/07/09 06:46:11;;;;;;;22.85;15.02;;;19.80;99.90;;;;;;5071966;28;20236;-77
2021/07/09 06:48:37;;;;;;;31.90;16.48;;;19.70;99.90;;;;;;5071279;28;20028;-77
2021/07/09 06:51:03;;;;;;;23.65;14.00;;;19.70;99.90;;;;;;5072142;28;20021;-75
2021/07/09 06:53:28;;;;;;;21.52;13.68;;;19.60;99.90;;;;;;5072090;28;20029;-77
2021/07/09 06:55:54;;;;;;;22.60;15.55;;;19.50;99.90;;;;;;5070673;28;20051;-76
2021/07/09 06:58:19;;;;;;;24.40;15.18;;;19.40;99.90;;;;;;5057366;28;20398;-77
2021/07/09 07:00:45;;;;;;;21.25;14.45;;;19.50;99.90;;;;;;5071484;28;20025;-76
2021/07/09 07:03:11;;;;;;;21.95;14.98;;;19.50;99.90;;;;;;5072326;28;20668;-76
2021/07/09 07:05:36;;;;;;;24.30;15.23;;;19.50;99.90;;;;;;5071420;28;20029;-77
2021/07/09 07:08:31;;;;;;;32.50;16.45;;;19.50;99.90;;;;;;5083993;28;20047;-76
2021/07/09 07:10:57;;;;;;;19.77;14.57;;;19.60;99.90;;;;;;5078576;28;20024;-77
2021/07/09 07:13:24;;;;;;;22.27;15.18;;;19.60;99.90;;;;;;5091644;28;20097;-76
2021/07/09 07:15:50;;;;;;;20.63;14.82;;;19.50;99.90;;;;;;5091529;28;20051;-76
2021/07/09 07:18:17;;;;;;;26.55;16.25;;;19.50;99.90;;;;;;5091963;28;20408;-76
2021/07/09 07:20:45;;;;;;;25.15;15.90;;;19.60;99.90;;;;;;5091473;28;20464;-76
2021/07/09 07:23:16;;;;;;;25.38;15.65;;;19.60;99.90;;;;;;5091179;28;20036;-77
2021/07/09 07:25:42;;;;;;;29.38;15.30;;;19.50;99.90;;;;;;5091523;28;20458;-77
2021/07/09 07:28:08;;;;;;;22.10;15.88;;;19.50;99.90;;;;;;5091510;28;20054;-76
2021/07/09 07:30:35;;;;;;;22.58;15.57;;;19.40;99.90;;;;;;5091272;28;20031;-76
2021/07/09 07:33:01;;;;;;;28.77;17.45;;;19.40;99.90;;;;;;5090592;28;20076;-76
2021/07/09 07:35:28;;;;;;;27.02;15.38;;;19.40;99.90;;;;;;5090966;28;20032;-77
2021/07/09 07:37:53;;;;;;;24.80;15.70;;;19.50;99.90;;;;;;5091305;28;20387;-77
2021/07/09 07:40:19;;;;;;;22.65;15.55;;;19.50;99.90;;;;;;5090571;28;20044;-75
2021/07/09 07:42:45;;;;;;;26.20;15.48;;;19.60;99.90;;;;;;5089136;28;20340;-75
2021/07/09 07:45:11;;;;;;;25.20;15.27;;;19.70;99.90;;;;;;5071104;28;20094;-76
2021/07/09 07:47:38;;;;;;;20.63;13.95;;;19.60;99.90;;;;;;5070597;28;20032;-78
2021/07/09 07:50:04;;;;;;;22.02;14.70;;;19.60;99.90;;;;;;5082300;28;20051;-84
2021/07/09 07:52:30;;;;;;;25.17;14.35;;;19.70;99.90;;;;;;5073062;28;20373;-78
2021/07/09 07:54:55;;;;;;;25.38;15.18;;;19.80;99.90;;;;;;5091032;28;20024;-79
2021/07/09 07:57:21;;;;;;;22.20;15.05;;;19.80;99.90;;;;;;5091537;28;20043;-80
2021/07/09 07:59:47;;;;;;;21.65;14.55;;;19.80;99.90;;;;;;5091032;28;20036;-80
2021/07/09 08:02:12;;;;;;;22.40;15.32;;;19.80;99.90;;;;;;5090904;28;20031;-78
2021/07/09 08:04:39;;;;;;;22.27;15.52;;;19.80;99.90;;;;;;5090749;28;20085;-81
2021/07/09 08:07:05;;;;;;;28.17;15.60;;;19.80;99.90;;;;;;5091077;28;20107;-79
2021/07/09 08:09:31;;;;;;;21.35;15.18;;;19.80;99.90;;;;;;5091349;28;20024;-78
2021/07/09 08:11:58;;;;;;;24.23;16.27;;;19.80;99.90;;;;;;5091207;28;20362;-78
2021/07/09 08:14:24;;;;;;;25.00;15.93;;;19.80;99.90;;;;;;5089533;28;20135;-79
2021/07/09 08:16:52;;;;;;;23.40;14.48;;;19.80;99.90;;;;;;5090661;28;20605;-81
2021/07/09 08:19:19;;;;;;;20.98;14.05;;;19.90;99.90;;;;;;5090841;28;20039;-82
2021/07/09 08:21:46;;;;;;;22.92;15.52;;;19.90;99.90;;;;;;5090670;28;20037;-80
2021/07/09 08:24:13;;;;;;;25.02;15.80;;;19.90;99.90;;;;;;5091194;28;20024;-82
2021/07/09 08:26:39;;;;;;;22.27;14.63;;;19.80;99.90;;;;;;5090661;28;20028;-82
2021/07/09 08:29:05;;;;;;;25.10;14.70;;;19.80;99.90;;;;;;5089619;28;20470;-77
2021/07/09 08:31:30;;;;;;;21.02;13.80;;;19.80;99.90;;;;;;5089628;28;20038;-81
2021/07/09 08:33:56;;;;;;;27.73;14.98;;;19.80;99.90;;;;;;5090614;28;20035;-78
2021/07/09 08:36:24;;;;;;;23.17;15.25;;;19.80;99.90;;;;;;5092776;28;20342;-80
2021/07/09 08:38:53;;;;;;;23.40;15.40;;;19.80;99.90;;;;;;5090464;28;20607;-78
2021/07/09 08:41:20;;;;;;;24.95;16.92;;;19.80;99.90;;;;;;5090441;28;20040;-78
2021/07/09 08:43:45;;;;;;;23.85;15.95;;;19.80;99.90;;;;;;5090354;28;20036;-76
2021/07/09 08:46:13;;;;;;;22.85;16.42;;;19.80;99.90;;;;;;5090132;28;20096;-77
2021/07/09 08:48:40;;;;;;;29.83;15.82;;;19.80;99.90;;;;;;5090355;28;20031;-76
2021/07/09 08:51:06;;;;;;;23.50;16.90;;;19.80;99.90;;;;;;5090896;28;20020;-76
2021/07/09 08:53:32;;;;;;;26.20;16.77;;;19.60;99.90;;;;;;5090443;28;20033;-78
2021/07/09 08:55:58;;;;;;;25.60;17.48;;;19.50;99.90;;;;;;5092681;28;20419;-77
2021/07/09 08:58:24;;;;;;;27.55;18.25;;;19.60;99.90;;;;;;5094149;28;20032;-76
2021/07/09 09:00:50;;;;;;;26.55;17.85;;;19.70;99.90;;;;;;5094235;28;20442;-78
2021/07/09 09:03:19;;;;;;;26.70;17.35;;;19.60;99.90;;;;;;5094630;28;20039;-79
2021/07/09 09:05:45;;;;;;;29.73;18.50;;;19.80;99.90;;;;;;5094216;28;20384;-79
2021/07/09 09:08:12;;;;;;;23.88;17.58;;;19.60;99.90;;;;;;5094304;28;20458;-78
2021/07/09 09:10:47;;;;;;;33.35;20.45;;;19.70;99.90;;;;;;5094233;28;20028;-80
2021/07/09 09:13:16;;;;;;;34.75;19.98;;;19.70;99.90;;;;;;5092781;28;20024;-77
2021/07/09 09:15:44;;;;;;;31.30;21.48;;;19.70;99.90;;;;;;5094014;28;20123;-78
2021/07/09 09:18:29;;;;;;;;;;;19.60;99.90;;;;;;5094978;28;20028;-77
2021/07/09 09:21:00;;;;;;;27.17;21.02;;;19.60;99.90;;;;;;5093531;28;19916;-76
2021/07/09 09:23:28;;;;;;;25.60;20.67;;;19.50;99.90;;;;;;5093620;28;20032;-78
2021/07/09 09:25:54;;;;;;;31.10;22.27;;;19.50;99.90;;;;;;5093444;28;20388;-77
2021/07/09 09:28:20;;;;;;;27.73;20.40;;;19.50;99.90;;;;;;5093620;28;20044;-78
2021/07/09 09:30:50;;;;;;;26.45;20.58;;;19.50;99.90;;;;;;5093678;28;20031;-77
2021/07/09 09:33:16;;;;;;;28.83;20.17;;;19.50;99.90;;;;;;5094242;28;20024;-77
2021/07/09 09:35:48;;;;;;;26.10;19.70;;;19.70;99.90;;;;;;5093439;28;20027;-77
2021/07/09 09:38:18;;;;;;;26.55;20.23;;;19.70;99.90;;;;;;5092404;28;20036;-77
2021/07/09 09:40:46;;;;;;;31.52;20.92;;;19.70;99.90;;;;;;5093101;28;20443;-77
2021/07/09 09:43:13;;;;;;;27.35;18.52;;;19.80;99.90;;;;;;5092248;28;20498;-79
2021/07/09 09:45:39;;;;;;;24.98;19.30;;;19.90;99.90;;;;;;5092560;28;20024;-77
2021/07/09 09:48:11;;;;;;;25.52;18.00;;;19.90;99.90;;;;;;5093623;28;20032;-76
2021/07/09 09:50:47;;;;;;;27.48;16.73;;;20.00;99.90;;;;;;5093250;28;20035;-77
2021/07/09 09:53:13;;;;;;;24.08;17.75;;;20.10;99.90;;;;;;5093195;28;20071;-76
2021/07/09 09:55:39;;;;;;;20.42;15.50;;;19.90;99.90;;;;;;5093111;28;20032;-76
2021/07/09 09:58:11;;;;;;;20.73;15.70;;;19.90;99.90;;;;;;5092962;28;20113;-76
2021/07/09 10:00:38;;;;;;;24.75;15.52;;;19.90;99.90;;;;;;5092236;28;20024;-78
2021/07/09 10:03:05;;;;;;;27.60;16.67;;;19.90;99.90;;;;;;5093390;28;20034;-76
2021/07/09 10:05:45;;;;;;;20.73;16.40;;;20.00;99.90;;;;;;5091921;28;20050;-76
2021/07/09 10:08:14;;;;;;;20.67;15.20;;;20.10;99.90;;;;;;5092744;28;20042;-76
2021/07/09 10:10:41;;;;;;;20.27;15.50;;;20.30;99.90;;;;;;5092661;28;20369;-78
2021/07/09 10:13:22;;;;;;;26.30;15.32;;;20.30;99.90;;;;;;5091313;28;20039;-78
2021/07/09 10:15:53;;;;;;;22.48;16.17;;;20.30;99.90;;;;;;5092506;28;20039;-78
2021/07/09 10:18:20;;;;;;;19.90;15.02;;;20.40;99.90;;;;;;5093196;28;20052;-77
2021/07/09 10:20:47;;;;;;;20.23;15.77;;;20.30;99.90;;;;;;5092773;28;20119;-78
2021/07/09 10:23:19;;;;;;;26.40;15.63;;;20.40;99.90;;;;;;5091538;28;20355;-79
2021/07/09 10:25:47;;;;;;;23.38;17.15;;;20.30;99.90;;;;;;5092433;28;20043;-77
2021/07/09 10:28:16;;;;;;;24.13;16.48;;;20.30;99.90;;;;;;5092450;28;20031;-77
2021/07/09 10:30:42;;;;;;;20.98;13.98;;;20.40;99.90;;;;;;5092377;28;20476;-78
2021/07/09 10:33:31;;;;;;;20.63;15.95;;;20.40;99.90;;;;;;5092796;28;20359;-77
2021/07/09 10:35:58;;;;;;;23.00;13.73;;;20.40;99.90;;;;;;5071001;28;20148;-78
2021/07/09 10:38:24;;;;;;;21.92;13.40;;;20.40;99.90;;;;;;5071969;28;20031;-75
2021/07/09 10:40:50;;;;;;;17.70;13.30;;;20.40;99.90;;;;;;5082815;28;20051;-75
2021/07/09 10:43:17;;;;;;;17.02;12.77;;;20.40;99.90;;;;;;5091205;28;20028;-77
2021/07/09 10:45:43;;;;;;;18.67;13.32;;;20.40;99.90;;;;;;5093075;28;20020;-78
2021/07/09 10:48:16;;;;;;;18.15;14.15;;;20.40;99.90;;;;;;5092594;28;20461;-76
2021/07/09 10:50:44;;;;;;;19.02;13.50;;;20.40;99.90;;;;;;5091041;28;20024;-75
2021/07/09 10:53:15;;;;;;;23.65;14.10;;;20.40;99.90;;;;;;5091176;28;20517;-76
2021/07/09 10:56:08;;;;;;;19.20;14.00;;;20.40;99.90;;;;;;5091884;28;20044;-76
2021/07/09 10:58:44;;;;;;;21.20;14.77;;;20.40;99.90;;;;;;5091730;28;20048;-76
2021/07/09 11:01:16;;;;;;;19.77;13.98;;;20.50;99.90;;;;;;5090362;28;20032;-77
2021/07/09 11:03:43;;;;;;;23.48;14.85;;;20.50;99.90;;;;;;5073827;28;20020;-76
2021/07/09 11:06:19;;;;;;;23.70;15.68;;;20.40;99.90;;;;;;5090816;28;20089;-76
2021/07/09 11:08:51;;;;;;;22.35;16.55;;;20.50;99.90;;;;;;5091570;28;20077;-75
2021/07/09 11:11:28;;;;;;;18.77;14.50;;;20.50;99.90;;;;;;5091663;28;20032;-80
2021/07/09 11:14:00;;;;;;;20.45;14.38;;;20.50;99.90;;;;;;5091974;28;20072;-82
2021/07/09 11:16:44;;;;;;;18.65;15.30;;;20.50;99.90;;;;;;5091678;28;20024;-79
2021/07/09 11:19:17;;;;;;;20.73;15.40;;;20.50;99.90;;;;;;5091553;28;20110;-80
2021/07/09 11:21:44;;;;;;;26.27;16.83;;;20.60;99.90;;;;;;5091564;28;20077;-76
2021/07/09 11:24:18;;;;;;;17.98;14.98;;;20.60;99.90;;;;;;5092082;28;20411;-83
2021/07/09 11:26:45;;;;;;;21.40;15.05;;;20.60;99.90;;;;;;5091676;28;20085;-80
2021/07/09 11:29:44;;;;;;;24.00;19.67;;;20.70;99.90;;;;;;5090287;28;20177;-81
2021/07/09 11:32:18;;;;;;;23.02;15.68;;;20.70;99.90;;;;;;5068675;28;20559;-81
2021/07/09 11:34:50;;;;;;;23.17;16.17;;;20.70;99.90;;;;;;5090360;28;20081;-79
2021/07/09 11:37:20;;;;;;;25.27;16.42;;;20.80;99.90;;;;;;5089865;28;20122;-81
2021/07/09 11:39:48;;;;;;;22.48;16.33;;;20.80;99.90;;;;;;5090123;28;20343;-78
2021/07/09 11:42:21;;;;;;;23.45;17.02;;;20.80;99.90;;;;;;5091501;28;20012;-80
2021/07/09 11:44:55;;;;;;;22.48;16.92;;;20.90;99.90;;;;;;5092190;28;20032;-79
2021/07/09 11:47:24;;;;;;;20.13;15.38;;;20.90;99.90;;;;;;5091050;28;20047;-80
2021/07/09 11:50:00;;;;;;;20.45;15.73;;;20.90;99.90;;;;;;5091128;28;20126;-79
2021/07/09 11:52:29;;;;;;;25.05;17.55;;;20.90;99.90;;;;;;5073270;28;20036;-81
2021/07/09 11:54:57;;;;;;;27.02;18.17;;;20.90;99.90;;;;;;5091199;28;20031;-87
2021/07/09 11:57:23;;;;;;;;;;;20.90;99.90;;;;;;5091932;28;20035;-78
2021/07/09 11:59:50;;;;;;;23.27;17.10;;;21.00;99.90;;;;;;5091093;28;19999;-77
2021/07/09 12:02:17;;;;;;;25.37;18.33;;;21.00;99.90;;;;;;5089507;28;20036;-80
2021/07/09 12:05:07;;;;;;;25.02;17.20;;;21.10;99.90;;;;;;5091142;28;20268;-77
2021/07/09 12:07:33;;;;;;;22.33;17.33;;;21.10;99.90;;;;;;5084836;28;20028;-78
2021/07/09 12:10:00;;;;;;;23.83;17.02;;;21.20;99.90;;;;;;5090984;28;20096;-81
2021/07/09 12:12:30;;;;;;;24.83;18.38;;;21.20;99.90;;;;;;5090973;28;20431;-77
2021/07/09 12:15:03;;;;;;;25.58;18.95;;;21.20;99.90;;;;;;5090776;28;20031;-79
2021/07/09 12:17:32;;;;;;;23.08;17.90;;;21.20;99.90;;;;;;5091205;28;20534;-82
2021/07/09 12:20:07;;;;;;;31.17;18.17;;;21.20;99.90;;;;;;5090749;28;20024;-80
2021/07/09 12:22:38;;;;;;;26.15;18.45;;;21.20;99.90;;;;;;5090702;28;20085;-80
2021/07/09 12:25:07;;;;;;;26.55;17.83;;;21.20;99.90;;;;;;5090780;28;20050;-84
2021/07/09 12:27:34;;;;;;;29.75;19.83;;;21.20;99.90;;;;;;5090531;28;20036;-79
2021/07/09 12:30:07;;;;;;;28.63;19.17;;;21.20;99.90;;;;;;5093339;28;20103;-81
2021/07/09 12:32:32;;;;;;;25.27;19.25;;;21.20;99.90;;;;;;5094945;28;20726;-83
2021/07/09 12:35:03;;;;;;;24.83;19.52;;;21.20;99.90;;;;;;5094929;28;20032;-82